createdAt,value
2022-09-01T00:01:43.318Z,15.45
2022-09-01T00:04:13.463Z,15.42
2022-09-01T00:06:40.971Z,15.40
2022-09-01T00:09:17.015Z,15.46
2022-09-01T00:11:50.570Z,15.56
2022-09-01T00:14:30.651Z,15.52
2022-09-01T00:17:04.446Z,15.53
2022-09-01T00:19:33.273Z,15.47
2022-09-01T00:22:00.434Z,15.42
2022-09-01T00:24:27.594Z,15.33
2022-09-01T00:26:56.105Z,15.27
2022-09-01T00:29:24.890Z,15.25
2022-09-01T00:31:52.413Z,15.20
2022-09-01T00:34:19.888Z,15.20
2022-09-01T00:36:48.064Z,15.16
2022-09-01T00:39:15.742Z,15.08
2022-09-01T00:41:44.117Z,15.11
2022-09-01T00:44:22.135Z,15.11
2022-09-01T00:46:55.556Z,14.99
2022-09-01T00:49:27.963Z,15.03
2022-09-01T00:51:58.806Z,14.96
2022-09-01T00:54:30.709Z,14.98
2022-09-01T00:56:58.474Z,14.96
2022-09-01T00:59:27.500Z,14.97
2022-09-01T01:01:55.075Z,14.99
2022-09-01T01:04:22.124Z,15.01
2022-09-01T01:06:58.843Z,15.08
2022-09-01T01:09:27.801Z,15.08
2022-09-01T01:11:55.127Z,14.96
2022-09-01T01:14:21.845Z,14.86
2022-09-01T01:16:52.160Z,14.79
2022-09-01T01:19:44.015Z,14.63
2022-09-01T01:22:37.890Z,14.53
2022-09-01T01:25:04.864Z,14.48
2022-09-01T01:27:33.666Z,14.39
2022-09-01T01:30:11.758Z,14.35
2022-09-01T01:32:43.117Z,14.31
2022-09-01T01:35:14.890Z,14.31
2022-09-01T01:37:49.056Z,14.24
2022-09-01T01:40:20.357Z,14.19
2022-09-01T01:42:49.467Z,14.12
2022-09-01T01:45:19.523Z,14.08
2022-09-01T01:47:53.401Z,14.07
2022-09-01T01:50:26.168Z,14.08
2022-09-01T01:52:58.274Z,13.97
2022-09-01T01:55:28.771Z,13.89
2022-09-01T01:57:59.127Z,13.83
2022-09-01T02:00:32.267Z,13.78
2022-09-01T02:02:59.559Z,13.71
2022-09-01T02:05:32.354Z,13.64
2022-09-01T02:08:04.768Z,13.60
2022-09-01T02:10:34.775Z,13.58
2022-09-01T02:13:06.003Z,13.50
2022-09-01T02:15:44.220Z,13.53
2022-09-01T02:18:14.358Z,13.47
2022-09-01T02:20:41.935Z,13.45
2022-09-01T02:23:10.905Z,13.43
2022-09-01T02:25:58.958Z,13.40
2022-09-01T02:28:32.158Z,13.45
2022-09-01T02:30:59.820Z,13.45
2022-09-01T02:33:28.452Z,13.44
2022-09-01T02:35:58.757Z,13.45
2022-09-01T02:38:28.111Z,13.49
2022-09-01T02:40:59.550Z,13.48
2022-09-01T02:43:28.350Z,13.48
2022-09-01T02:45:59.673Z,13.47
2022-09-01T02:48:35.815Z,13.49
2022-09-01T02:51:06.454Z,13.49
2022-09-01T02:53:34.870Z,13.50
2022-09-01T02:56:12.133Z,13.44
2022-09-01T02:58:45.679Z,13.36
2022-09-01T03:01:24.802Z,13.37
2022-09-01T03:03:55.674Z,13.32
2022-09-01T03:06:24.495Z,13.25
2022-09-01T03:08:59.628Z,13.23
2022-09-01T03:11:29.754Z,13.21
2022-09-01T03:13:57.099Z,13.21
2022-09-01T03:16:23.883Z,13.22
2022-09-01T03:18:51.879Z,13.22
2022-09-01T03:21:20.672Z,13.18
2022-09-01T03:23:48.721Z,13.19
2022-09-01T03:26:19.348Z,13.19
2022-09-01T03:28:46.657Z,13.16
2022-09-01T03:31:14.190Z,13.11
2022-09-01T03:33:42.185Z,13.04
2022-09-01T03:36:19.372Z,12.96
2022-09-01T03:38:48.801Z,12.90
2022-09-01T03:41:19.918Z,12.85
2022-09-01T03:43:48.866Z,12.80
2022-09-01T03:46:23.016Z,12.69
2022-09-01T03:48:52.805Z,12.64
2022-09-01T03:51:22.566Z,12.63
2022-09-01T03:53:54.848Z,12.64
2022-09-01T03:56:24.604Z,12.69
2022-09-01T03:58:52.869Z,12.69
2022-09-01T04:01:22.787Z,12.71
2022-09-01T04:03:51.215Z,12.66
2022-09-01T04:06:24.049Z,12.67
2022-09-01T04:09:00.814Z,12.67
2022-09-01T04:11:28.049Z,12.72
2022-09-01T04:13:54.697Z,12.73
2022-09-01T04:16:48.100Z,12.69
2022-09-01T04:19:20.469Z,12.63
2022-09-01T04:21:53.670Z,12.66
2022-09-01T04:24:24.176Z,12.70
2022-09-01T04:26:53.180Z,12.70
2022-09-01T04:29:27.533Z,12.75
2022-09-01T04:32:03.613Z,12.73
2022-09-01T04:34:38.193Z,12.73
2022-09-01T04:37:22.023Z,12.73
2022-09-01T04:39:57.829Z,12.72
2022-09-01T04:42:29.110Z,12.71
2022-09-01T04:45:02.029Z,12.75
2022-09-01T04:47:41.879Z,12.74
2022-09-01T04:50:14.973Z,12.76
2022-09-01T04:53:06.296Z,12.74
2022-09-01T04:55:43.529Z,12.69
2022-09-01T04:58:17.457Z,12.71
2022-09-01T05:00:48.214Z,12.74
2022-09-01T05:03:21.564Z,12.75
2022-09-01T05:05:54.493Z,12.76
2022-09-01T05:08:24.333Z,12.82
2022-09-01T05:10:55.762Z,12.89
2022-09-01T05:13:46.311Z,12.99
2022-09-01T05:16:22.782Z,13.15
2022-09-01T05:18:54.214Z,13.32
2022-09-01T05:21:24.658Z,13.48
2022-09-01T05:23:51.858Z,13.62
2022-09-01T05:26:23.375Z,13.76
2022-09-01T05:28:55.519Z,13.83
2022-09-01T05:31:24.228Z,13.97
2022-09-01T05:33:51.769Z,14.09
2022-09-01T05:36:21.570Z,14.21
2022-09-01T05:38:52.267Z,14.31
2022-09-01T05:41:20.966Z,14.48
2022-09-01T05:43:55.175Z,14.57
2022-09-01T05:46:28.140Z,14.65
2022-09-01T05:48:57.405Z,14.70
2022-09-01T05:51:43.872Z,14.68
2022-09-01T05:54:12.140Z,14.72
2022-09-01T05:56:43.519Z,14.76
2022-09-01T05:59:23.068Z,14.85
2022-09-01T06:01:53.216Z,14.92
2022-09-01T06:04:21.055Z,15.04
2022-09-01T06:07:05.635Z,15.10
2022-09-01T06:09:39.963Z,15.14
2022-09-01T06:12:09.233Z,15.24
2022-09-01T06:14:35.931Z,15.25
2022-09-01T06:17:03.508Z,15.24
2022-09-01T06:19:36.926Z,15.18
2022-09-01T06:22:04.871Z,15.21
2022-09-01T06:24:31.994Z,15.23
2022-09-01T06:26:59.706Z,15.31
2022-09-01T06:29:26.780Z,15.38
2022-09-01T06:31:53.397Z,15.40
2022-09-01T06:34:20.579Z,15.46
2022-09-01T06:36:49.546Z,15.52
2022-09-01T06:39:19.867Z,15.61
2022-09-01T06:41:53.109Z,15.68
2022-09-01T06:44:24.610Z,15.73
2022-09-01T06:47:00.271Z,15.78
2022-09-01T06:49:33.106Z,15.84
2022-09-01T06:52:01.254Z,15.96
2022-09-01T06:54:29.859Z,16.06
2022-09-01T06:56:57.556Z,16.06
2022-09-01T06:59:34.693Z,16.04
2022-09-01T07:02:04.904Z,16.06
2022-09-01T07:05:04.858Z,16.04
2022-09-01T07:13:38.752Z,16.02
2022-09-01T07:18:58.798Z,16.09
2022-09-01T07:22:06.724Z,16.12
2022-09-01T07:24:18.196Z,16.27
2022-09-01T07:27:11.086Z,16.28
2022-09-01T07:29:39.326Z,16.37
2022-09-01T07:34:55.690Z,16.48
2022-09-01T07:43:33.711Z,16.74
2022-09-01T07:49:49.194Z,16.83
2022-09-01T07:52:04.379Z,16.84
2022-09-01T07:54:33.947Z,16.94
2022-09-01T07:57:01.801Z,17.08
2022-09-01T07:59:31.096Z,17.25
2022-09-01T08:02:19.080Z,17.37
2022-09-01T08:04:48.950Z,17.47
2022-09-01T08:07:16.904Z,17.56
2022-09-01T08:09:44.558Z,17.53
2022-09-01T08:12:13.375Z,17.51
2022-09-01T08:14:46.676Z,17.51
2022-09-01T08:17:18.375Z,17.68
2022-09-01T08:20:09.950Z,17.90
2022-09-01T08:22:58.893Z,18.07
2022-09-01T08:25:31.031Z,18.18
2022-09-01T08:28:00.139Z,18.09
2022-09-01T08:30:28.336Z,18.04
2022-09-01T08:32:55.178Z,18.11
2022-09-01T08:35:22.805Z,18.27
2022-09-01T08:37:49.509Z,18.39
2022-09-01T08:40:20.726Z,18.52
2022-09-01T08:42:47.995Z,18.58
2022-09-01T08:45:20.971Z,18.56
2022-09-01T08:48:15.388Z,18.66
2022-09-01T08:50:38.195Z,18.55
2022-09-01T08:54:27.657Z,18.35
2022-09-01T08:57:26.352Z,18.47
2022-09-01T09:00:16.060Z,18.57
2022-09-01T09:03:08.621Z,18.70
2022-09-01T09:06:04.012Z,18.86
2022-09-01T09:08:52.854Z,18.81
2022-09-01T09:11:31.258Z,18.73
2022-09-01T09:14:26.374Z,18.66
2022-09-01T09:16:54.777Z,18.54
2022-09-01T09:19:32.028Z,18.67
2022-09-01T09:22:01.109Z,18.72
2022-09-01T09:24:50.602Z,18.92
2022-09-01T09:27:26.924Z,19.08
2022-09-01T09:29:57.120Z,19.18
2022-09-01T09:33:11.692Z,18.97
2022-09-01T09:35:31.680Z,18.87
2022-09-01T09:38:28.525Z,19.02
2022-09-01T09:44:01.159Z,19.26
2022-09-01T09:46:27.863Z,19.37
2022-09-01T09:49:12.781Z,19.57
2022-09-01T09:51:42.081Z,19.28
2022-09-01T09:54:28.377Z,19.25
2022-09-01T09:57:06.902Z,19.24
2022-09-01T09:59:58.687Z,19.38
2022-09-01T10:02:33.197Z,19.42
2022-09-01T10:05:21.728Z,19.43
2022-09-01T10:07:49.355Z,19.62
2022-09-01T10:10:40.672Z,19.85
2022-09-01T10:13:17.661Z,20.02
2022-09-01T10:15:53.213Z,19.98
2022-09-01T10:18:29.388Z,19.82
2022-09-01T10:21:24.098Z,19.82
2022-09-01T10:23:50.780Z,19.59
2022-09-01T10:26:27.754Z,19.63
2022-09-01T10:29:20.897Z,19.71
2022-09-01T10:31:47.662Z,19.82
2022-09-01T10:34:21.466Z,19.66
2022-09-01T10:36:56.809Z,19.70
2022-09-01T10:39:28.315Z,19.91
2022-09-01T10:42:04.561Z,20.12
2022-09-01T10:44:57.759Z,20.26
2022-09-01T10:47:37.846Z,20.30
2022-09-01T10:50:35.430Z,20.49
2022-09-01T10:53:05.394Z,20.59
2022-09-01T10:55:45.307Z,20.53
2022-09-01T11:04:59.437Z,19.72
2022-09-01T11:07:50.209Z,18.83
2022-09-01T11:10:35.415Z,19.60
2022-09-01T11:13:16.445Z,19.27
2022-09-01T11:15:45.593Z,19.32
2022-09-01T11:18:27.376Z,19.49
2022-09-01T11:20:56.313Z,20.12
2022-09-01T11:23:27.783Z,20.26
2022-09-01T11:26:35.490Z,20.31
2022-09-01T11:29:02.464Z,19.94
2022-09-01T11:31:31.100Z,20.09
2022-09-01T11:34:17.632Z,20.34
2022-09-01T11:36:48.300Z,19.54
2022-09-01T11:39:18.128Z,19.87
2022-09-01T11:42:04.982Z,20.16
2022-09-01T11:44:51.198Z,20.41
2022-09-01T11:47:29.577Z,20.53
2022-09-01T11:50:05.768Z,19.74
2022-09-01T11:52:35.927Z,19.63
2022-09-01T11:55:07.202Z,19.45
2022-09-01T11:57:35.304Z,20.12
2022-09-01T12:00:08.010Z,20.03
2022-09-01T12:02:45.755Z,19.69
2022-09-01T12:05:32.113Z,19.62
2022-09-01T12:08:02.136Z,19.79
2022-09-01T12:10:38.361Z,20.20
2022-09-01T12:13:10.913Z,20.35
2022-09-01T12:16:06.996Z,20.70
2022-09-01T12:18:35.118Z,20.29
2022-09-01T12:21:04.540Z,20.61
2022-09-01T12:23:43.031Z,19.97
2022-09-01T12:26:18.130Z,19.83
2022-09-01T12:28:46.063Z,19.67
2022-09-01T12:31:17.062Z,19.72
2022-09-01T12:33:44.660Z,20.17
2022-09-01T12:36:15.242Z,20.74
2022-09-01T12:38:42.011Z,20.92
2022-09-01T12:41:38.963Z,20.70
2022-09-01T12:44:30.334Z,20.43
2022-09-01T12:47:01.696Z,20.69
2022-09-01T12:49:50.721Z,20.60
2022-09-01T12:52:25.947Z,20.01
2022-09-01T12:54:58.818Z,20.61
2022-09-01T12:57:29.878Z,21.12
2022-09-01T13:00:12.387Z,20.32
2022-09-01T13:03:05.279Z,20.46
2022-09-01T13:05:42.361Z,21.32
2022-09-01T13:08:12.686Z,20.77
2022-09-01T13:10:48.347Z,20.38
2022-09-01T13:13:16.038Z,20.65
2022-09-01T13:15:48.127Z,20.94
2022-09-01T13:18:19.288Z,20.73
2022-09-01T13:20:46.239Z,20.76
2022-09-01T13:23:13.093Z,21.07
2022-09-01T13:25:40.585Z,21.12
2022-09-01T13:28:09.082Z,21.23
2022-09-01T13:30:35.820Z,21.26
2022-09-01T13:33:28.405Z,21.28
2022-09-01T13:35:50.393Z,21.29
2022-09-01T13:38:18.152Z,21.10
2022-09-01T13:40:47.265Z,21.26
2022-09-01T13:43:15.338Z,21.06
2022-09-01T13:45:43.198Z,21.02
2022-09-01T13:49:01.740Z,20.93
2022-09-01T13:51:16.513Z,21.17
2022-09-01T13:53:45.286Z,20.94
2022-09-01T13:56:15.047Z,20.90
2022-09-01T13:58:42.453Z,20.97
2022-09-01T14:01:09.162Z,20.83
2022-09-01T14:03:35.810Z,20.86
2022-09-01T14:06:02.601Z,20.92
2022-09-01T14:08:30.776Z,21.22
2022-09-01T14:10:57.405Z,21.03
2022-09-01T14:13:25.090Z,21.52
2022-09-01T14:15:53.342Z,22.06
2022-09-01T14:18:22.217Z,21.84
2022-09-01T14:20:50.974Z,21.17
2022-09-01T14:23:19.187Z,21.34
2022-09-01T14:25:51.082Z,21.24
2022-09-01T14:28:20.620Z,21.08
2022-09-01T14:30:48.323Z,20.83
2022-09-01T14:33:15.169Z,21.08
2022-09-01T14:35:46.450Z,21.10
2022-09-01T14:38:14.735Z,21.17
2022-09-01T14:40:43.429Z,20.92
2022-09-01T14:43:14.081Z,20.78
2022-09-01T14:45:44.541Z,21.03
2022-09-01T14:48:11.352Z,20.64
2022-09-01T14:50:41.538Z,20.65
2022-09-01T14:53:08.951Z,20.68
2022-09-01T14:55:35.751Z,20.73
2022-09-01T14:58:02.870Z,20.75
2022-09-01T15:00:31.774Z,20.76
2022-09-01T15:02:58.761Z,20.80
2022-09-01T15:05:25.579Z,20.77
2022-09-01T15:07:54.465Z,20.77
2022-09-01T15:10:25.687Z,20.65
2022-09-01T15:13:00.378Z,20.74
2022-09-01T15:15:28.845Z,20.71
2022-09-01T15:17:56.418Z,20.55
2022-09-01T15:20:42.438Z,20.43
2022-09-01T15:23:09.377Z,20.46
2022-09-01T15:25:36.343Z,20.43
2022-09-01T15:28:07.789Z,20.33
2022-09-01T15:30:35.372Z,20.37
2022-09-01T15:33:02.037Z,20.31
2022-09-01T15:35:29.968Z,20.33
2022-09-01T15:37:59.985Z,20.42
2022-09-01T15:40:27.393Z,20.40
2022-09-01T15:42:55.664Z,20.31
2022-09-01T15:45:31.729Z,20.30
2022-09-01T15:48:00.314Z,20.07
2022-09-01T15:50:27.996Z,20.13
2022-09-01T15:53:03.721Z,20.27
2022-09-01T15:55:38.082Z,20.26
2022-09-01T15:58:04.703Z,20.28
2022-09-01T16:00:34.743Z,20.29
2022-09-01T16:03:02.433Z,20.28
2022-09-01T16:05:31.015Z,20.20
2022-09-01T16:07:57.902Z,20.18
2022-09-01T16:10:24.808Z,20.09
2022-09-01T16:12:52.558Z,20.28
2022-09-01T16:15:22.208Z,20.39
2022-09-01T16:17:52.482Z,20.32
2022-09-01T16:20:25.545Z,20.19
2022-09-01T16:22:56.810Z,20.22
2022-09-01T16:25:32.962Z,20.10
2022-09-01T16:28:10.370Z,20.18
2022-09-01T16:30:37.798Z,20.35
2022-09-01T16:33:19.780Z,20.30
2022-09-01T16:36:24.117Z,20.26
2022-09-01T16:38:57.891Z,20.30
2022-09-01T16:41:45.255Z,20.24
2022-09-01T16:44:22.734Z,20.12
2022-09-01T16:47:07.234Z,20.31
2022-09-01T16:50:04.075Z,20.53
2022-09-01T16:52:44.165Z,20.44
2022-09-01T16:55:41.501Z,20.34
2022-09-01T16:58:23.316Z,20.21
2022-09-01T17:01:02.091Z,20.12
2022-09-01T17:03:43.961Z,20.25
2022-09-01T17:06:22.798Z,20.27
2022-09-01T17:08:52.641Z,20.32
2022-09-01T17:11:34.831Z,20.48
2022-09-01T17:14:03.138Z,20.65
2022-09-01T17:16:37.020Z,20.74
2022-09-01T17:19:08.534Z,20.67
2022-09-01T17:21:41.653Z,20.22
2022-09-01T17:24:17.481Z,19.78
2022-09-01T17:26:47.722Z,19.57
2022-09-01T17:29:14.846Z,19.40
2022-09-01T17:31:50.398Z,19.30
2022-09-01T17:34:54.797Z,19.10
2022-09-01T17:37:29.127Z,18.98
2022-09-01T17:40:08.562Z,18.84
2022-09-01T17:43:18.168Z,18.80
2022-09-01T17:46:08.104Z,18.75
2022-09-01T17:48:53.805Z,18.66
2022-09-01T17:51:34.368Z,18.64
2022-09-01T17:54:16.881Z,18.65
2022-09-01T17:56:58.428Z,18.61
2022-09-01T17:59:38.946Z,18.50
2022-09-01T18:02:24.554Z,18.44
2022-09-01T18:05:03.113Z,18.43
2022-09-01T18:07:48.925Z,18.47
2022-09-01T18:10:23.156Z,18.42
2022-09-01T18:12:56.070Z,18.38
2022-09-01T18:15:24.198Z,18.31
2022-09-01T18:18:00.180Z,18.26
2022-09-01T18:20:36.385Z,18.21
2022-09-01T18:23:14.165Z,18.13
2022-09-01T18:25:42.338Z,18.11
2022-09-01T18:28:09.726Z,18.04
2022-09-01T18:30:53.274Z,17.95
2022-09-01T18:33:54.936Z,17.92
2022-09-01T18:36:21.550Z,17.85
2022-09-01T18:38:58.089Z,17.81
2022-09-01T18:41:45.983Z,17.76
2022-09-01T18:44:47.245Z,17.73
2022-09-01T18:47:16.162Z,17.72
2022-09-01T18:50:10.684Z,17.68
2022-09-01T18:52:42.884Z,17.63
2022-09-01T18:55:15.227Z,17.62
2022-09-01T18:57:45.681Z,17.64
2022-09-01T19:00:30.783Z,17.63
2022-09-01T19:03:20.341Z,17.60
2022-09-01T19:06:05.295Z,17.58
2022-09-01T19:08:40.815Z,17.54
2022-09-01T19:11:22.634Z,17.52
2022-09-01T19:13:53.266Z,17.48
2022-09-01T19:16:22.882Z,17.46
2022-09-01T19:19:01.958Z,17.40
2022-09-01T19:21:32.269Z,17.38
2022-09-01T19:24:04.360Z,17.33
2022-09-01T19:26:37.941Z,17.32
2022-09-01T19:29:12.763Z,17.33
2022-09-01T19:31:44.690Z,17.31
2022-09-01T19:34:18.630Z,17.31
2022-09-01T19:36:47.308Z,17.27
2022-09-01T19:39:25.100Z,17.27
2022-09-01T19:41:57.349Z,17.25
2022-09-01T19:44:33.197Z,17.28
2022-09-01T19:47:05.065Z,17.32
2022-09-01T19:49:46.796Z,17.32
2022-09-01T19:52:33.446Z,17.34
2022-09-01T19:55:14.007Z,17.37
2022-09-01T19:58:03.334Z,17.35
2022-09-01T20:00:50.808Z,17.39
2022-09-01T20:03:21.153Z,17.48
2022-09-01T20:05:50.433Z,17.56
2022-09-01T20:08:23.750Z,17.55
2022-09-01T20:11:01.334Z,17.39
2022-09-01T20:13:33.412Z,17.27
2022-09-01T20:16:09.350Z,17.17
2022-09-01T20:18:51.969Z,17.12
2022-09-01T20:21:21.546Z,17.10
2022-09-01T20:23:57.675Z,17.09
2022-09-01T20:26:37.257Z,17.05
2022-09-01T20:29:45.469Z,17.01
2022-09-01T20:32:20.324Z,17.00
2022-09-01T20:34:53.009Z,17.00
2022-09-01T20:37:33.725Z,17.03
2022-09-01T20:40:17.478Z,16.97
2022-09-01T20:43:22.043Z,16.95
2022-09-01T20:45:49.393Z,16.97
2022-09-01T20:48:26.226Z,16.93
2022-09-01T20:51:01.411Z,16.93
2022-09-01T20:54:06.630Z,16.93
2022-09-01T20:57:05.814Z,16.93
2022-09-01T20:59:47.343Z,16.96
2022-09-01T21:02:20.816Z,16.94
2022-09-01T21:04:59.473Z,16.91
2022-09-01T21:07:35.847Z,16.89
2022-09-01T21:10:21.068Z,16.93
2022-09-01T21:13:25.232Z,16.98
2022-09-01T21:16:03.319Z,17.09
2022-09-01T21:18:51.493Z,17.20
2022-09-01T21:22:04.445Z,17.25
2022-09-01T21:24:31.440Z,17.23
2022-09-01T21:27:01.129Z,17.19
2022-09-01T21:29:36.474Z,17.17
2022-09-01T21:32:06.250Z,17.13
2022-09-01T21:34:32.962Z,17.14
2022-09-01T21:37:07.019Z,17.12
2022-09-01T21:39:33.673Z,17.13
2022-09-01T21:42:00.535Z,17.13
2022-09-01T21:44:28.759Z,17.10
2022-09-01T21:46:56.630Z,17.05
2022-09-01T21:49:23.313Z,17.05
2022-09-01T21:51:54.161Z,17.01
2022-09-01T21:54:21.552Z,16.97
2022-09-01T21:56:53.266Z,16.96
2022-09-01T21:59:20.557Z,16.90
2022-09-01T22:01:47.874Z,16.85
2022-09-01T22:04:18.344Z,16.82
2022-09-01T22:06:45.788Z,16.82
2022-09-01T22:09:20.601Z,16.78
2022-09-01T22:11:50.043Z,16.75
2022-09-01T22:14:17.494Z,16.68
2022-09-01T22:16:44.570Z,16.64
2022-09-01T22:19:11.249Z,16.60
2022-09-01T22:21:39.690Z,16.56
2022-09-01T22:24:06.502Z,16.53
2022-09-01T22:26:34.289Z,16.50
2022-09-01T22:29:03.929Z,16.51
2022-09-01T22:31:32.233Z,16.48
2022-09-01T22:34:00.148Z,16.42
2022-09-01T22:36:30.030Z,16.39
2022-09-01T22:39:00.921Z,16.35
2022-09-01T22:41:30.252Z,16.34
2022-09-01T22:43:59.878Z,16.26
2022-09-01T22:46:28.418Z,16.26
2022-09-01T22:48:56.630Z,16.25
2022-09-01T22:51:23.701Z,16.27
2022-09-01T22:53:53.581Z,16.27
2022-09-01T22:56:32.484Z,16.27
2022-09-01T22:59:05.670Z,16.28
2022-09-01T23:01:42.384Z,16.27
2022-09-01T23:04:13.557Z,16.28
2022-09-01T23:06:49.091Z,16.28
2022-09-01T23:09:19.861Z,16.27
2022-09-01T23:11:49.365Z,16.31
2022-09-01T23:14:20.897Z,16.32
2022-09-01T23:16:54.797Z,16.34
2022-09-01T23:19:23.096Z,16.30
2022-09-01T23:21:51.145Z,16.24
2022-09-01T23:24:22.241Z,16.27
2022-09-01T23:26:49.633Z,16.27
2022-09-01T23:29:20.196Z,16.29
2022-09-01T23:31:49.064Z,16.27
2022-09-01T23:34:16.201Z,16.26
2022-09-01T23:36:45.306Z,16.22
2022-09-01T23:39:12.364Z,16.15
2022-09-01T23:41:41.435Z,16.13
2022-09-01T23:44:09.960Z,16.11
2022-09-01T23:46:43.669Z,16.05
2022-09-01T23:49:15.237Z,16.03
2022-09-01T23:51:42.141Z,16.00
2022-09-01T23:54:09.454Z,15.98
2022-09-01T23:56:37.659Z,15.98
2022-09-01T23:59:04.577Z,15.98
